Time;durP1;ratioP1;P1;durP2;ratioP2;P2;SDS_P1;SDS_P2;PMS_P1;PMS_P2;Temp;Humidity;BMP_temperature;BMP_pressure;BME280_temperature;BME280_humidity;BME280_pressure;Samples;Min_cycle;Max_cycle;Signal;HPM_P1;HPM_P2
2022/08/19 00:00:29;;;;;;;5.35;4.32;;;;;;;22.63;68.55;94197.66;5051775;28;20201;-64
2022/08/19 00:02:54;;;;;;;7.85;4.97;;;;;;;22.56;69.04;94194.34;5033867;28;20200;-62
2022/08/19 00:05:21;;;;;;;4.90;4.40;;;;;;;22.66;68.77;94207.63;5033819;28;20209;-61
2022/08/19 00:07:48;;;;;;;5.50;4.25;;;;;;;22.66;69.66;94202.44;5051741;28;20193;-64
2022/08/19 00:10:16;;;;;;;4.78;4.25;;;;;;;22.82;67.98;94227.00;5051891;28;20201;-61
2022/08/19 00:12:42;;;;;;;5.25;4.38;;;;;;;22.74;68.68;94217.72;5051549;28;20200;-63
2022/08/19 00:15:11;;;;;;;6.50;4.95;;;;;;;22.77;68.84;94217.25;5051638;28;20201;-61
2022/08/19 00:17:40;;;;;;;5.18;4.68;;;;;;;22.88;67.88;94237.31;5051601;28;20190;-64
2022/08/19 00:20:07;;;;;;;5.63;4.65;;;;;;;22.99;67.40;94246.16;5051530;28;20207;-61
2022/08/19 00:22:33;;;;;;;5.45;4.95;;;;;;;22.94;68.22;94240.84;5051334;28;20181;-60
2022/08/19 00:24:58;;;;;;;6.22;4.63;;;;;;;23.01;68.31;94242.34;5051668;28;20223;-60
2022/08/19 00:27:24;;;;;;;5.47;4.13;;;;;;;23.09;68.18;94249.03;5051451;28;20181;-64
2022/08/19 00:29:50;;;;;;;4.93;4.53;;;;;;;23.03;68.52;94240.31;5057515;22;20295;-59
2022/08/19 00:32:16;;;;;;;5.03;4.47;;;;;;;23.10;68.34;94248.84;5051485;28;20554;-61
2022/08/19 00:34:41;;;;;;;7.45;5.18;;;;;;;23.25;68.23;94259.63;5051454;28;20213;-60
2022/08/19 00:37:07;;;;;;;5.22;4.72;;;;;;;23.17;68.69;94252.16;5051556;28;20182;-63
2022/08/19 00:39:32;;;;;;;6.10;4.72;;;;;;;23.30;68.50;94256.41;5051554;28;20205;-62
2022/08/19 00:41:58;;;;;;;5.90;5.30;;;;;;;23.30;68.32;94249.41;5051393;28;20570;-63
2022/08/19 00:44:27;;;;;;;8.35;6.68;;;;;;;23.14;68.46;94250.00;5057054;22;20221;-63
2022/08/19 00:46:55;;;;;;;5.43;4.93;;;;;;;23.21;67.86;94258.47;5033184;28;20281;-63
2022/08/19 00:49:50;;;;;;;5.97;5.07;;;;;;;23.10;68.01;94248.03;5051361;28;20690;-61
2022/08/19 00:52:38;;;;;;;6.63;5.65;;;;;;;22.93;68.83;94240.03;5050247;28;20247;-62
2022/08/19 00:55:10;;;;;;;4.97;4.47;;;;;;;22.98;67.87;94255.75;5051323;28;20213;-60
2022/08/19 00:57:39;;;;;;;6.57;5.15;;;;;;;23.08;67.47;94263.84;5033103;28;20193;-62
2022/08/19 01:00:13;;;;;;;8.05;4.95;;;;;;;23.03;67.96;94250.69;5033205;28;20770;-64
2022/08/19 01:02:41;;;;;;;6.00;5.07;;;;;;;23.10;67.85;94258.41;5051090;28;20219;-64
2022/08/19 01:05:10;;;;;;;5.43;4.88;;;;;;;23.06;68.63;94250.28;5050693;28;20221;-61
2022/08/19 01:07:38;;;;;;;5.40;4.88;;;;;;;23.03;68.06;94255.88;5050842;28;20224;-63
2022/08/19 01:10:07;;;;;;;7.80;5.38;;;;;;;23.02;68.84;94256.91;5032962;28;20231;-63
2022/08/19 01:12:32;;;;;;;5.88;4.93;;;;;;;23.00;69.22;94242.56;5032902;28;20189;-63
2022/08/19 01:14:59;;;;;;;5.57;5.07;;;;;;;23.13;68.48;94252.78;5051015;28;20221;-63
2022/08/19 01:17:25;;;;;;;7.07;5.15;;;;;;;23.02;68.70;94250.94;5050807;28;20261;-62
2022/08/19 01:19:51;;;;;;;5.88;5.03;;;;;;;22.90;68.38;94250.84;5050899;28;20269;-64
2022/08/19 01:22:23;;;;;;;5.72;5.05;;;;;;;22.82;67.73;94258.91;5032763;28;20651;-63
2022/08/19 01:24:49;;;;;;;7.78;5.18;;;;;;;22.74;68.19;94251.41;5050912;28;20278;-62
2022/08/19 01:27:14;;;;;;;6.20;4.82;;;;;;;22.66;68.66;94246.50;5050630;28;20178;-65
2022/08/19 01:29:43;;;;;;;5.28;4.65;;;;;;;22.63;68.58;94251.28;5050735;28;20217;-61
2022/08/19 01:32:13;;;;;;;7.07;4.68;;;;;;;22.48;69.55;94238.66;5050555;28;20217;-64
2022/08/19 01:34:39;;;;;;;6.43;4.35;;;;;;;22.30;70.17;94228.25;5050812;28;20217;-61
2022/08/19 01:37:10;;;;;;;7.38;5.47;;;;;;;22.23;70.91;94220.53;5050719;28;20264;-62
2022/08/19 01:39:38;;;;;;;5.82;5.32;;;;;;;22.06;71.90;94213.50;5032571;28;20695;-61
2022/08/19 01:42:04;;;;;;;5.05;4.65;;;;;;;21.87;73.22;94197.09;5050591;28;20192;-64
2022/08/19 01:44:30;;;;;;;5.28;4.75;;;;;;;21.73;73.91;94185.97;5032365;28;20232;-60
2022/08/19 01:46:56;;;;;;;5.32;4.82;;;;;;;21.53;75.59;94189.72;5050351;28;20178;-63
2022/08/19 01:49:24;;;;;;;6.43;5.47;;;;;;;21.42;76.16;94196.31;5032951;28;20209;-61
2022/08/19 01:51:51;;;;;;;5.15;4.72;;;;;;;21.11;77.70;94188.50;5050413;28;20277;-62
2022/08/19 01:54:18;;;;;;;17.25;5.38;;;;;;;21.01;78.63;94208.03;5032351;28;20209;-61
2022/08/19 01:56:44;;;;;;;9.90;5.40;;;;;;;21.17;78.29;94203.19;5050390;28;20189;-63
2022/08/19 01:59:17;;;;;;;5.60;5.10;;;;;;;21.32;76.94;94228.78;5032388;28;20703;-63
2022/08/19 02:01:43;;;;;;;7.82;5.28;;;;;;;21.39;76.81;94238.09;5050721;28;20268;-63
2022/08/19 02:04:08;;;;;;;6.97;5.30;;;;;;;21.31;77.79;94224.63;5053549;28;20699;-61
2022/08/19 02:06:34;;;;;;;7.68;4.95;;;;;;;21.18;78.06;94215.13;5053701;28;20181;-60
2022/08/19 02:09:00;;;;;;;5.47;4.85;;;;;;;21.21;78.57;94227.63;5053700;28;20205;-59
2022/08/19 02:11:33;;;;;;;6.28;4.97;;;;;;;21.24;79.13;94210.94;5035780;28;20197;-63
2022/08/19 02:14:01;;;;;;;7.47;5.28;;;;;;;21.41;77.37;94254.22;5053427;28;20205;-63
2022/08/19 02:16:27;;;;;;;7.05;5.43;;;;;;;21.55;76.49;94266.09;5053557;28;20181;-60
2022/08/19 02:18:53;;;;;;;8.15;5.43;;;;;;;21.52;77.42;94248.41;5053439;28;20224;-64
2022/08/19 02:21:21;;;;;;;6.07;5.07;;;;;;;21.59;77.27;94243.22;5035535;28;20556;-63
2022/08/19 02:23:46;;;;;;;6.45;5.65;;;;;;;21.62;77.47;94248.75;5053230;28;20350;-63
2022/08/19 02:26:12;;;;;;;6.55;4.90;;;;;;;21.63;77.71;94247.75;5052267;28;20702;-63
2022/08/19 02:28:40;;;;;;;5.57;5.10;;;;;;;21.81;76.63;94269.56;5053206;28;20753;-63
2022/08/19 02:31:14;;;;;;;6.10;4.82;;;;;;;21.72;77.12;94256.88;5053363;28;20577;-60
2022/08/19 02:33:40;;;;;;;7.57;6.05;;;;;;;21.73;77.49;94260.25;5052971;28;20315;-61
2022/08/19 02:36:07;;;;;;;6.97;5.03;;;;;;;21.73;77.27;94262.84;5035404;28;20235;-63
2022/08/19 02:38:34;;;;;;;6.57;5.13;;;;;;;21.79;77.08;94256.03;5053110;28;20204;-61
2022/08/19 02:41:03;;;;;;;5.88;5.32;;;;;;;22.02;76.66;94266.69;5035160;28;20693;-61
2022/08/19 02:43:30;;;;;;;7.22;5.25;;;;;;;21.97;77.34;94264.72;5053172;28;20225;-62
2022/08/19 02:45:56;;;;;;;7.47;5.57;;;;;;;21.89;77.55;94257.22;5053053;28;20186;-61
2022/08/19 02:48:24;;;;;;;6.05;5.53;;;;;;;21.79;77.39;94259.44;5053271;28;20190;-63
2022/08/19 02:50:57;;;;;;;6.70;5.82;;;;;;;21.66;77.93;94260.28;5035142;28;20371;-60
2022/08/19 02:53:25;;;;;;;5.93;5.43;;;;;;;21.45;78.38;94242.47;5052054;28;20596;-62
2022/08/19 02:55:52;;;;;;;6.18;5.60;;;;;;;21.41;78.24;94253.44;5016907;28;20667;-63
2022/08/19 02:58:18;;;;;;;7.70;5.75;;;;;;;21.41;77.60;94268.97;5052049;28;20709;-63
2022/08/19 03:00:48;;;;;;;8.20;6.00;;;;;;;21.34;78.52;94248.28;5052694;28;20544;-63
2022/08/19 03:03:15;;;;;;;6.07;5.47;;;;;;;21.37;76.70;94284.06;5034780;28;20232;-61
2022/08/19 03:05:41;;;;;;;8.77;5.93;;;;;;;21.32;77.77;94270.97;5052971;28;20617;-60
2022/08/19 03:08:09;;;;;;;10.18;5.78;;;;;;;21.24;77.56;94273.00;5034789;28;20193;-63
2022/08/19 03:10:41;;;;;;;5.65;5.15;;;;;;;21.30;76.83;94285.09;5034992;28;20186;-64
2022/08/19 03:13:08;;;;;;;5.63;5.13;;;;;;;21.12;77.83;94254.72;5034273;28;20659;-63
2022/08/19 03:15:34;;;;;;;7.03;5.93;;;;;;;21.02;78.27;94249.19;5052445;28;20264;-61
2022/08/19 03:17:59;;;;;;;6.35;5.53;;;;;;;21.00;78.94;94240.81;5052513;28;20199;-59
2022/08/19 03:20:25;;;;;;;9.60;5.72;;;;;;;20.81;79.85;94221.78;5052404;28;20287;-63
2022/08/19 03:22:51;;;;;;;6.40;5.35;;;;;;;20.64;80.97;94209.50;5052283;28;20558;-62
2022/08/19 03:25:16;;;;;;;5.85;5.25;;;;;;;20.60;81.60;94214.28;5034527;28;20222;-63
2022/08/19 03:27:42;;;;;;;8.77;5.80;;;;;;;20.48;82.19;94192.63;5052414;28;20239;-63
2022/08/19 03:30:10;;;;;;;9.13;5.82;;;;;;;20.39;82.88;94195.63;5034280;28;20297;-63
2022/08/19 03:32:35;;;;;;;6.25;5.63;;;;;;;20.45;82.88;94205.16;5034174;28;20215;-63
2022/08/19 03:35:02;;;;;;;6.60;5.13;;;;;;;20.39;83.13;94205.94;5052282;28;20206;-63
2022/08/19 03:37:28;;;;;;;8.13;6.28;;;;;;;20.44;84.02;94201.75;5052217;28;20186;-62
2022/08/19 03:39:53;;;;;;;7.13;5.55;;;;;;;20.53;83.05;94216.06;5052155;28;20286;-64
2022/08/19 03:42:19;;;;;;;6.22;5.53;;;;;;;20.57;82.81;94234.53;5052251;28;20185;-62
2022/08/19 03:44:44;;;;;;;6.13;4.93;;;;;;;20.75;81.88;94253.59;5052064;28;20213;-61
2022/08/19 03:47:14;;;;;;;7.00;5.32;;;;;;;20.73;81.56;94260.75;5051954;28;20186;-62
2022/08/19 03:49:46;;;;;;;6.85;6.15;;;;;;;20.80;82.11;94253.78;5052374;28;20706;-60
2022/08/19 03:52:11;;;;;;;8.05;5.95;;;;;;;20.92;81.24;94269.47;5052195;28;20186;-62
2022/08/19 03:54:38;;;;;;;6.60;6.00;;;;;;;20.89;80.91;94275.81;5052334;28;20220;-64
2022/08/19 03:57:04;;;;;;;6.95;5.63;;;;;;;20.87;80.60;94282.19;5034305;28;20742;-64
2022/08/19 03:59:33;;;;;;;8.10;5.32;;;;;;;20.91;79.92;94288.53;5033923;28;20306;-63
2022/08/19 04:02:00;;;;;;;6.05;5.25;;;;;;;20.87;80.61;94282.19;5052256;28;20199;-64
2022/08/19 04:04:28;;;;;;;6.50;5.50;;;;;;;20.92;79.62;94305.66;5051722;28;20221;-62
2022/08/19 04:06:54;;;;;;;6.47;5.72;;;;;;;20.96;80.40;94296.50;5052008;28;20190;-62
2022/08/19 04:09:20;;;;;;;7.88;5.90;;;;;;;21.00;79.82;94310.59;5051737;28;20749;-64
2022/08/19 04:11:48;;;;;;;6.45;4.90;;;;;;;20.97;79.26;94318.75;5051790;28;20197;-64
2022/08/19 04:14:20;;;;;;;6.93;5.35;;;;;;;20.87;79.66;94305.44;5033774;28;20221;-69
2022/08/19 04:16:47;;;;;;;6.00;5.15;;;;;;;20.78;80.54;94296.34;5033748;28;20193;-62
2022/08/19 04:19:14;;;;;;;8.38;6.15;;;;;;;20.80;80.76;94295.13;5051490;28;20217;-64
2022/08/19 04:21:44;;;;;;;6.68;5.90;;;;;;;20.77;80.53;94297.31;5051397;28;20193;-64
2022/08/19 04:24:12;;;;;;;6.65;6.05;;;;;;;20.83;80.40;94301.69;5051244;28;20225;-64
2022/08/19 04:26:38;;;;;;;13.10;6.68;;;;;;;21.06;79.10;94330.50;5051301;28;20186;-64
2022/08/19 04:29:12;;;;;;;8.45;6.22;;;;;;;20.90;79.71;94315.41;5051326;28;20198;-63
2022/08/19 04:31:39;;;;;;;8.07;5.78;;;;;;;20.87;79.69;94318.38;5051443;28;20659;-61
2022/08/19 04:34:08;;;;;;;6.05;5.45;;;;;;;21.04;79.56;94327.34;5051445;28;20599;-65
2022/08/19 04:36:35;;;;;;;7.00;5.28;;;;;;;21.00;79.74;94318.38;5033494;28;20283;-63
2022/08/19 04:39:04;;;;;;;6.43;5.43;;;;;;;20.95;80.08;94312.22;5033049;28;20567;-62
2022/08/19 04:44:17;;;;;;;7.15;6.15;;;;;;;20.98;81.27;94293.72;5051505;28;20223;-64
2022/08/19 04:46:44;;;;;;;6.32;5.45;;;;;;;20.90;81.25;94287.78;5033175;28;20189;-60
2022/08/19 04:49:10;;;;;;;6.38;5.78;;;;;;;20.82;82.24;94279.44;5051028;28;20300;-61
2022/08/19 04:51:36;;;;;;;6.00;5.50;;;;;;;20.81;82.55;94263.13;5051037;28;20742;-63
2022/08/19 04:54:02;;;;;;;8.35;5.68;;;;;;;20.65;84.40;94242.88;5032923;28;20702;-62
2022/08/19 04:56:28;;;;;;;8.00;6.05;;;;;;;20.67;84.84;94248.63;5050962;28;20195;-62
2022/08/19 04:58:55;;;;;;;6.43;5.00;;;;;;;20.86;84.41;94254.78;5051187;28;20213;-63
2022/08/19 05:01:25;;;;;;;6.63;5.78;;;;;;;21.07;82.87;94287.38;5050819;28;20193;-63
2022/08/19 05:03:51;;;;;;;10.00;6.00;;;;;;;20.99;83.48;94283.16;5031684;28;20229;-63
2022/08/19 05:06:19;;;;;;;6.60;6.00;;;;;;;21.08;83.28;94286.34;5032931;28;20186;-63
2022/08/19 05:08:45;;;;;;;9.27;6.43;;;;;;;21.10;82.67;94298.09;5050572;28;20201;-64
2022/08/19 05:11:12;;;;;;;6.68;5.78;;;;;;;21.19;82.87;94296.09;5050641;28;20197;-63
2022/08/19 05:13:38;;;;;;;12.48;6.82;;;;;;;21.42;80.78;94328.25;5050986;28;20244;-64
2022/08/19 05:16:04;;;;;;;8.23;6.80;;;;;;;21.33;81.87;94308.75;5050546;28;20209;-63
2022/08/19 05:24:03;;;;;;;10.27;7.03;;;;;;;21.75;79.28;94348.84;5050674;28;20228;-63
2022/08/19 05:26:28;;;;;;;8.13;6.10;;;;;;;21.83;82.63;94288.31;5050712;28;20196;-63
2022/08/19 05:28:54;;;;;;;8.68;6.90;;;;;;;21.94;82.99;94282.47;5050709;28;20213;-62
2022/08/19 05:31:22;;;;;;;7.93;7.20;;;;;;;22.02;79.34;94360.69;5050541;28;20189;-64
2022/08/19 05:33:47;;;;;;;10.57;7.55;;;;;;;21.94;78.98;94349.78;5050708;28;20713;-63
2022/08/19 05:36:13;;;;;;;12.05;7.50;;;;;;;22.25;76.15;94406.78;5032560;28;20276;-62
2022/08/19 05:38:39;;;;;;;11.02;7.45;;;;;;;22.30;78.29;94362.94;5053431;28;20209;-62
2022/08/19 05:41:14;;;;;;;8.38;6.53;;;;;;;22.43;78.68;94358.47;5036100;28;20186;-63
2022/08/19 05:43:39;;;;;;;8.85;7.93;;;;;;;22.45;76.86;94391.94;5036043;28;20307;-63
2022/08/19 05:46:08;;;;;;;10.98;7.60;;;;;;;22.66;74.69;94425.34;5036006;28;20276;-62
2022/08/19 05:48:34;;;;;;;13.30;7.32;;;;;;;22.78;74.30;94430.63;5053585;28;20642;-63
2022/08/19 05:51:06;;;;;;;12.57;6.60;;;;;;;22.82;73.20;94440.38;5053868;28;20190;-63
2022/08/19 05:53:33;;;;;;;8.82;6.95;;;;;;;22.85;75.94;94397.66;5053394;28;20391;-62
2022/08/19 05:56:15;;;;;;;7.93;6.80;;;;;;;22.91;75.82;94383.84;5053859;28;20251;-65
2022/08/19 05:58:42;;;;;;;10.10;7.13;;;;;;;23.16;75.22;94408.81;5054105;28;20206;-64
2022/08/19 06:01:15;;;;;;;11.98;7.63;;;;;;;23.22;73.33;94439.09;5035770;28;20197;-63
2022/08/19 06:03:40;;;;;;;8.35;7.07;;;;;;;23.42;73.33;94435.53;5053424;28;20218;-63
2022/08/19 06:06:07;;;;;;;12.85;6.85;;;;;;;23.72;73.06;94445.03;5035713;28;20557;-63
2022/08/19 06:08:34;;;;;;;8.35;7.30;;;;;;;23.71;70.97;94482.41;5053626;28;20285;-63
2022/08/19 06:11:14;;;;;;;9.75;6.47;;;;;;;23.90;69.35;94503.97;5053625;28;20193;-63
2022/08/19 06:13:39;;;;;;;9.77;6.75;;;;;;;23.99;69.96;94484.53;5035540;28;20683;-63
2022/08/19 06:16:05;;;;;;;9.70;6.75;;;;;;;24.13;72.22;94454.81;5053395;28;20194;-60
2022/08/19 06:18:30;;;;;;;8.88;6.35;;;;;;;24.26;70.93;94483.22;5052782;28;20271;-63
2022/08/19 06:20:56;;;;;;;9.93;6.20;;;;;;;24.34;68.39;94528.94;5053054;28;20193;-64
2022/08/19 06:23:22;;;;;;;10.00;5.90;;;;;;;24.28;67.90;94533.19;5052852;28;20243;-64
2022/08/19 06:25:47;;;;;;;11.32;6.75;;;;;;;24.39;68.58;94510.88;5053175;28;20247;-63
2022/08/19 06:28:13;;;;;;;9.15;6.45;;;;;;;24.40;69.16;94505.47;5035323;28;20203;-64
2022/08/19 06:30:38;;;;;;;9.82;7.18;;;;;;;24.21;69.92;94479.72;5053119;28;20611;-61
2022/08/19 06:33:04;;;;;;;9.25;5.97;;;;;;;24.27;70.81;94468.44;5035366;28;20197;-63
2022/08/19 06:35:29;;;;;;;8.60;6.15;;;;;;;24.26;71.65;94454.66;5053572;28;20740;-62
2022/08/19 06:37:55;;;;;;;7.80;5.72;;;;;;;24.35;69.98;94489.75;5035196;28;20197;-63
2022/08/19 06:40:21;;;;;;;7.45;6.05;;;;;;;24.55;68.69;94513.69;5052972;28;20220;-64
2022/08/19 06:42:47;;;;;;;7.05;5.90;;;;;;;24.57;69.11;94501.25;5033901;28;20231;-63
2022/08/19 06:45:12;;;;;;;9.70;6.18;;;;;;;24.67;69.45;94478.13;5052996;28;20218;-63
2022/08/19 06:47:38;;;;;;;6.97;5.80;;;;;;;24.76;71.56;94445.66;5052884;28;20363;-62
2022/08/19 06:50:04;;;;;;;9.18;6.72;;;;;;;24.84;70.08;94471.34;5052024;28;20217;-64
2022/08/19 06:52:32;;;;;;;13.02;8.20;;;;;;;24.98;68.29;94508.38;5034834;28;20189;-63
2022/08/19 06:54:59;;;;;;;15.70;6.78;;;;;;;25.01;72.83;94416.06;5053137;28;20643;-61
2022/08/19 06:57:25;;;;;;;45.08;33.20;;;;;;;25.11;71.33;94453.50;5052785;28;20186;-61
2022/08/19 06:59:51;;;;;;;22.65;13.25;;;;;;;25.16;71.36;94455.47;5052815;28;20236;-62
2022/08/19 07:02:18;;;;;;;15.45;6.57;;;;;;;25.28;68.39;94519.53;5052646;28;20189;-61
2022/08/19 07:04:43;;;;;;;21.35;15.68;;;;;;;25.39;66.86;94546.63;5052597;28;20655;-63
2022/08/19 07:07:12;;;;;;;18.95;12.20;;;;;;;25.43;67.52;94532.16;5052734;28;20209;-60
2022/08/19 07:09:42;;;;;;;12.85;6.43;;;;;;;25.55;65.13;94585.06;5052758;28;20265;-62
2022/08/19 07:12:10;;;;;;;15.68;8.15;;;;;;;25.51;65.45;94573.50;5052735;28;20182;-61
2022/08/19 07:14:37;;;;;;;10.57;7.20;;;;;;;25.56;70.22;94472.06;5052807;28;20217;-62
2022/08/19 07:17:05;;;;;;;14.02;7.53;;;;;;;25.63;69.90;94483.94;5035149;28;20193;-62
2022/08/19 07:19:32;;;;;;;16.67;9.07;;;;;;;25.79;66.64;94550.22;5034840;28;20244;-62
2022/08/19 07:22:01;;;;;;;16.65;9.05;;;;;;;25.91;65.13;94574.47;5034582;28;20185;-62
2022/08/19 07:24:27;;;;;;;11.02;6.10;;;;;;;25.94;66.06;94553.16;5052599;28;20827;-61
2022/08/19 07:26:56;;;;;;;13.45;6.30;;;;;;;25.90;64.40;94579.91;5034551;28;20178;-62
2022/08/19 07:29:22;;;;;;;12.60;7.25;;;;;;;26.16;60.93;94653.25;5052250;28;20288;-61
2022/08/19 07:31:50;;;;;;;9.70;6.40;;;;;;;26.15;61.70;94620.41;5052103;28;20185;-61
2022/08/19 07:34:17;;;;;;;14.98;7.45;;;;;;;26.24;64.82;94553.09;5052219;28;20206;-62
2022/08/19 07:36:43;;;;;;;11.88;7.05;;;;;;;26.48;63.88;94576.28;5033926;28;20192;-62
2022/08/19 07:39:16;;;;;;;9.13;6.55;;;;;;;26.72;61.44;94633.66;5034109;28;20229;-61
2022/08/19 07:41:42;;;;;;;11.32;6.47;;;;;;;26.80;62.15;94609.81;5052201;28;20247;-61
2022/08/19 07:44:09;;;;;;;12.20;6.57;;;;;;;26.90;60.86;94630.91;5051912;28;20217;-61
2022/08/19 07:46:39;;;;;;;21.08;11.30;;;;;;;27.24;58.45;94679.63;5051757;28;20189;-62
2022/08/19 07:49:06;;;;;;;9.38;6.15;;;;;;;27.29;56.01;94724.91;5051968;28;20205;-61
2022/08/19 07:51:33;;;;;;;7.35;5.85;;;;;;;27.17;54.74;94739.03;5033913;28;20174;-62
2022/08/19 07:53:59;;;;;;;9.85;6.63;;;;;;;27.08;55.87;94703.84;5051899;28;20215;-62
2022/08/19 07:56:25;;;;;;;13.13;6.90;;;;;;;27.07;55.87;94699.66;5051692;28;20182;-65
2022/08/19 07:58:52;;;;;;;9.93;6.50;;;;;;;27.14;54.58;94708.13;5051712;28;20710;-61
2022/08/19 08:01:24;;;;;;;12.00;6.28;;;;;;;27.16;55.79;94693.03;5051357;28;20178;-61
2022/08/19 08:09:25;;;;;;;7.82;6.40;;;;;;;27.35;55.52;94695.28;5051986;28;20256;-60
2022/08/19 08:12:00;;;;;;;10.75;6.78;;;;;;;27.73;56.53;94668.56;5051503;28;20368;-61
2022/08/19 08:14:30;;;;;;;11.75;5.90;;;;;;;27.75;55.40;94687.41;5051638;28;20287;-62
2022/08/19 08:16:57;;;;;;;11.20;6.82;;;;;;;27.76;54.50;94715.13;5051757;28;20189;-63
2022/08/19 08:19:26;;;;;;;14.23;5.97;;;;;;;27.76;54.01;94716.94;5049814;28;20213;-61
2022/08/19 08:21:54;;;;;;;11.10;6.70;;;;;;;27.83;53.59;94723.63;5033432;28;20667;-61
2022/08/19 08:24:20;;;;;;;13.57;6.60;;;;;;;28.00;53.57;94721.84;5051285;28;20217;-62
2022/08/19 08:26:46;;;;;;;11.38;6.75;;;;;;;28.32;51.06;94784.91;5033323;28;20194;-61
2022/08/19 08:29:12;;;;;;;14.15;6.53;;;;;;;28.45;51.96;94734.91;5033265;28;20268;-62
2022/08/19 08:31:40;;;;;;;13.57;6.40;;;;;;;28.50;52.88;94710.66;5051207;28;20259;-60
2022/08/19 08:34:06;;;;;;;11.55;6.28;;;;;;;28.53;53.63;94681.38;5051098;28;20221;-64
2022/08/19 08:36:33;;;;;;;15.60;6.47;;;;;;;28.79;52.05;94720.78;5051052;28;20193;-64
2022/08/19 08:39:00;;;;;;;12.77;7.25;;;;;;;29.03;52.36;94716.13;5050961;28;20764;-63
2022/08/19 08:41:31;;;;;;;12.95;6.47;;;;;;;29.29;50.91;94744.28;5016826;28;20197;-63
2022/08/19 08:43:57;;;;;;;10.73;6.40;;;;;;;29.43;51.83;94718.53;5050763;28;20762;-63
2022/08/19 08:46:41;;;;;;;7.13;5.28;;;;;;;29.19;46.97;94864.63;5033233;28;20714;-63
2022/08/19 08:49:33;;;;;;;8.55;5.07;;;;;;;29.17;47.50;94678.13;5033051;28;20588;-63
2022/08/19 08:52:07;;;;;;;6.55;4.80;;;;;;;29.23;45.45;94690.22;5051040;28;20663;-62
2022/08/19 08:54:44;;;;;;;9.70;4.50;;;;;;;29.44;43.32;94696.50;5050678;28;20220;-62
2022/08/19 08:57:19;;;;;;;7.22;4.50;;;;;;;29.53;43.20;94684.56;5051324;28;20742;-62
2022/08/19 08:59:51;;;;;;;6.75;4.50;;;;;;;29.72;44.35;94642.06;5051002;28;20305;-60
2022/08/19 09:02:18;;;;;;;10.25;4.80;;;;;;;29.96;43.61;94670.63;5050927;28;20656;-61
2022/08/19 09:04:44;;;;;;;8.75;4.75;;;;;;;30.24;42.79;94672.94;5050563;28;20217;-61
2022/08/19 09:07:26;;;;;;;15.63;5.78;;;;;;;30.50;42.84;94651.13;5032967;28;20185;-63
2022/08/19 09:09:57;;;;;;;9.15;5.53;;;;;;;30.78;43.73;94647.34;5032711;28;20248;-62
2022/08/19 09:12:49;;;;;;;6.85;4.68;;;;;;;31.07;44.33;94627.56;5032169;28;20255;-63
2022/08/19 09:15:18;;;;;;;9.77;5.32;;;;;;;31.30;41.52;94675.19;5032579;28;20255;-64
2022/08/19 09:17:44;;;;;;;6.07;4.93;;;;;;;31.71;41.22;94675.34;5032692;28;20190;-63
2022/08/19 09:20:10;;;;;;;9.63;4.95;;;;;;;31.92;40.48;94682.22;5050770;28;20287;-61
2022/08/19 09:22:43;;;;;;;7.18;4.70;;;;;;;32.05;40.14;94679.13;5050706;28;20272;-63
2022/08/19 09:25:18;;;;;;;6.60;4.15;;;;;;;32.09;40.88;94657.28;5050372;28;20221;-62
2022/08/19 09:27:44;;;;;;;4.63;4.22;;;;;;;32.39;37.71;94724.94;5033867;28;20284;-61
2022/08/19 09:30:22;;;;;;;5.00;4.20;;;;;;;32.49;37.19;94709.16;5050259;28;20304;-61
2022/08/19 09:32:48;;;;;;;5.40;4.35;;;;;;;32.55;37.17;94694.13;5050554;28;20219;-61
2022/08/19 09:35:15;;;;;;;5.38;3.83;;;;;;;32.18;34.70;94744.38;5050114;28;20251;-61
2022/08/19 09:37:42;;;;;;;5.03;3.10;;;;;;;32.74;33.92;94710.97;5050420;28;20268;-61
2022/08/19 09:40:08;;;;;;;4.25;3.22;;;;;;;32.78;32.63;94733.91;5032499;28;20241;-61
2022/08/19 09:42:34;;;;;;;5.82;4.00;;;;;;;32.53;34.07;94693.59;5050389;28;20192;-62
2022/08/19 09:45:00;;;;;;;5.13;3.70;;;;;;;32.47;33.65;94687.56;5050150;28;20221;-64
2022/08/19 09:47:26;;;;;;;4.35;3.47;;;;;;;32.39;33.06;94695.16;5032388;28;20213;-62
2022/08/19 09:49:52;;;;;;;3.78;3.47;;;;;;;32.05;33.31;94681.75;5031930;28;20643;-63
2022/08/19 09:52:17;;;;;;;3.78;3.47;;;;;;;32.64;33.35;94680.19;5050208;28;20285;-64
2022/08/19 09:54:43;;;;;;;3.60;3.30;;;;;;;32.59;32.31;94698.63;5032377;28;20212;-64
2022/08/19 09:57:09;;;;;;;5.35;3.10;;;;;;;32.66;32.73;94683.34;5050170;28;20696;-63
2022/08/19 09:59:34;;;;;;;6.68;3.45;;;;;;;32.37;31.99;94697.28;5049880;28;20213;-62
2022/08/19 10:02:00;;;;;;;6.00;3.30;;;;;;;32.55;31.94;94692.31;5050072;28;20173;-62
2022/08/19 10:07:17;;;;;;;9.48;3.85;;;;;;;33.28;31.61;94679.50;5050160;28;20197;-63
2022/08/19 10:09:42;;;;;;;5.70;3.67;;;;;;;33.20;30.63;94694.03;5049752;28;20213;-62
2022/08/19 10:12:08;;;;;;;5.90;3.72;;;;;;;33.41;31.29;94671.03;5032065;28;20663;-64
2022/08/19 10:14:34;;;;;;;4.95;3.83;;;;;;;33.51;30.25;94668.38;5050477;28;20223;-63
2022/08/19 10:17:02;;;;;;;7.35;4.03;;;;;;;33.67;31.29;94662.75;5050040;28;20308;-62
2022/08/19 10:19:32;;;;;;;6.05;4.10;;;;;;;33.68;30.58;94680.13;5031803;28;20213;-63
2022/08/19 10:21:57;;;;;;;5.82;4.10;;;;;;;33.83;30.93;94666.06;5049935;28;20205;-64
2022/08/19 10:24:24;;;;;;;4.30;3.80;;;;;;;34.09;30.94;94662.22;5034522;28;20226;-62
2022/08/19 10:26:49;;;;;;;5.82;4.20;;;;;;;34.62;29.15;94700.13;5053310;28;20277;-62
2022/08/19 10:29:16;;;;;;;5.43;3.78;;;;;;;34.33;29.89;94681.56;5053244;28;20324;-64
2022/08/19 10:31:42;;;;;;;6.70;4.10;;;;;;;34.34;29.35;94675.22;5053184;28;20701;-63
2022/08/19 10:34:08;;;;;;;5.07;4.38;;;;;;;34.63;30.09;94649.63;5035288;28;20245;-64
2022/08/19 10:36:37;;;;;;;10.38;3.80;;;;;;;34.75;29.76;94667.75;5052890;28;20193;-63
2022/08/19 10:39:08;;;;;;;5.47;4.53;;;;;;;34.98;28.85;94674.94;5035049;28;20313;-65
2022/08/19 10:41:36;;;;;;;4.43;4.00;;;;;;;34.81;29.36;94661.34;5035050;28;20276;-63
2022/08/19 10:44:05;;;;;;;11.57;4.22;;;;;;;34.63;29.69;94649.63;5059007;22;20310;-63
2022/08/19 10:46:32;;;;;;;6.35;3.83;;;;;;;34.64;29.47;94648.53;5035136;28;20747;-62
2022/08/19 10:48:59;;;;;;;7.97;4.38;;;;;;;34.86;30.03;94647.28;5027546;28;20238;-63
2022/08/19 10:54:09;;;;;;;8.07;4.03;;;;;;;35.35;27.88;94682.19;5032968;28;20276;-62
2022/08/19 10:56:51;;;;;;;4.18;3.75;;;;;;;35.37;28.37;94656.25;5033090;28;20186;-63
2022/08/19 10:59:23;;;;;;;5.38;4.65;;;;;;;35.76;28.70;94663.94;5032916;28;20217;-63
2022/08/19 11:01:50;;;;;;;5.15;4.70;;;;;;;36.03;28.44;94656.97;5032813;28;20170;-65
2022/08/19 11:04:17;;;;;;;5.25;3.80;;;;;;;35.17;28.07;94664.44;5014816;28;20222;-64
2022/08/19 11:06:47;;;;;;;5.45;4.10;;;;;;;34.76;29.06;94620.97;5015048;28;20636;-63
2022/08/19 11:09:15;;;;;;;6.25;4.25;;;;;;;34.90;28.74;94632.44;5015252;28;20222;-63
2022/08/19 11:11:41;;;;;;;7.80;3.90;;;;;;;35.36;28.27;94652.81;5032587;28;20197;-63
2022/08/19 11:14:09;;;;;;;4.30;4.00;;;;;;;35.13;29.00;94643.03;5032553;28;20210;-64
2022/08/19 11:16:37;;;;;;;4.65;4.13;;;;;;;35.01;29.41;94610.16;5032685;28;20642;-64
2022/08/19 11:19:02;;;;;;;6.20;4.22;;;;;;;35.70;28.72;94636.75;5014878;28;20226;-63
2022/08/19 11:21:34;;;;;;;7.95;4.22;;;;;;;36.14;28.63;94626.56;5032632;28;20182;-62
2022/08/19 11:24:12;;;;;;;4.45;4.05;;;;;;;36.30;29.43;94603.28;5014674;28;20224;-63
2022/08/19 11:26:41;;;;;;;5.35;4.95;;;;;;;36.40;28.66;94631.47;5032602;28;20198;-63
2022/08/19 11:29:11;;;;;;;4.57;4.18;;;;;;;36.63;27.80;94639.28;5032072;28;20214;-62
2022/08/19 11:31:39;;;;;;;6.95;4.13;;;;;;;36.10;28.61;94614.22;5032448;28;20186;-62
2022/08/19 11:34:07;;;;;;;4.25;3.85;;;;;;;36.31;28.42;94619.97;5032184;28;20214;-64
2022/08/19 11:36:34;;;;;;;4.45;4.03;;;;;;;36.33;29.21;94589.44;5031923;28;20261;-64
2022/08/19 11:39:00;;;;;;;6.05;4.45;;;;;;;36.50;28.79;94602.97;5044203;22;20233;-63
2022/08/19 11:41:27;;;;;;;4.57;4.10;;;;;;;36.23;29.17;94579.03;5034038;28;20201;-63
2022/08/19 11:43:54;;;;;;;4.97;4.47;;;;;;;35.53;27.63;94619.81;5027325;28;20264;-62
2022/08/19 11:46:22;;;;;;;4.20;3.80;;;;;;;35.81;28.32;94601.16;5032171;28;20186;-64
2022/08/19 11:48:49;;;;;;;6.45;3.85;;;;;;;35.62;28.94;94581.84;5032018;28;20214;-61
2022/08/19 11:51:26;;;;;;;4.90;4.45;;;;;;;36.19;29.07;94573.53;5032045;28;20197;-63
2022/08/19 11:53:53;;;;;;;5.45;4.32;;;;;;;35.90;28.08;94594.09;5031996;28;20212;-62